Airfield :
LOGIN :

Register | Disclaimer

   EN    FR    IT 

 










Legend :    VFR   Marginal VFR   IFR   Intensive IFR   Very Intensive IFR
Visi :
Ceiling :
>= 8 km
>= 3000ft
5 to 8 km
1000 to 3000 ft
1500m to 5 km
500 to 1000 ft
800 to 1500m
200 to 500 ft
< 800m
< 200 ft
Symbols :   Thunderstorms  Fog  Heavy snow  Heavy precipitations  Wind > 20 kt
SIGMETs :     Misc.  Thunderstorms  Icing  Turbulence  Mountain Waves  Volcanic Ashes






- Airport Elevation : 124 ft
- IATA code : AVN


LFMV - Avignon Caumont

CURRENT METAR :
  • 192330Z AUTO 34007KT CAVOK 10/02 Q1015

EXPIRED METARs :
  • 192300Z AUTO 36004KT 330V030 CAVOK 10/02 Q1015
  • 192230Z AUTO 34005KT CAVOK 10/02 Q1015
  • 192200Z AUTO 33008KT CAVOK 11/02 Q1015
  • 192130Z AUTO 34007KT CAVOK 10/02 Q1015
  • 192100Z AUTO 35003KT CAVOK 10/02 Q1015
  • 192030Z AUTO 31003KT CAVOK 11/02 Q1016
  • 192000Z AUTO 30003KT CAVOK 12/02 Q1016 NOSIG
  • 191930Z AUTO 30007KT CAVOK 14/01 Q1016 NOSIG
  • 191900Z AUTO 29007KT CAVOK 14/02 Q1015 NOSIG

TAF TAF LFMV
Valid from the 19 at 15:00 until the 20 at 15:00 UTC


191400Z 1915/2015 34015G25KT CAVOK
BECMG 1916/1918 33010KT
BECMG 2002/2004 34015G25KT
BECMG 2004/2008 34025G35KT
PROB40
TEMPO 2010/2015 34030G45KT
ATIS : +33 4 90 84 32 84



MET'MAP, your aeronautical weather chart ! - Copyright ORBIFLY December 2007 - Disclaimer

ORBIFLY MET'MAP TEAM :

Programming & Development : Alexandra Zaïnal
Original concept : Baudouin d'Aumeries
Technical & hardware support : Manuel Goepfert
Assistance : Marc-Olivier Méhu




SOURCES & CREDITS :

   NOAA